Time;durP1;ratioP1;P1;durP2;ratioP2;P2;SDS_P1;SDS_P2;PMS_P1;PMS_P2;Temp;Humidity;BMP_temperature;BMP_pressure;BME280_temperature;BME280_humidity;BME280_pressure;Samples;Min_cycle;Max_cycle;Signal;HPM_P1;HPM_P2
2023/01/10 00:00:52;;;;;;;12.43;5.03;;;6.30;99.90;;;;;;4829855;29;20189;-95
2023/01/10 00:03:18;;;;;;;11.07;4.30;;;6.30;99.90;;;;;;4837581;29;20240;-90
2023/01/10 00:05:44;;;;;;;8.50;4.07;;;6.30;99.90;;;;;;4840739;29;20188;-92
2023/01/10 00:08:14;;;;;;;14.10;5.00;;;6.30;99.90;;;;;;4839493;29;20193;-96
2023/01/10 00:10:40;;;;;;;19.17;4.83;;;6.30;99.90;;;;;;4835813;29;20237;-96
2023/01/10 00:13:24;;;;;;;14.90;4.33;;;6.30;99.90;;;;;;4857249;29;20186;-96
2023/01/10 00:15:51;;;;;;;16.63;4.10;;;6.30;99.90;;;;;;4844224;29;20217;-95
2023/01/10 00:18:27;;;;;;;13.90;4.70;;;6.30;99.90;;;;;;4841233;29;20276;-95
2023/01/10 00:20:53;;;;;;;9.73;4.40;;;6.30;99.90;;;;;;4841046;29;20189;-95
2023/01/10 00:23:19;;;;;;;10.73;4.50;;;6.30;99.90;;;;;;4858068;29;20187;-96
2023/01/10 00:25:45;;;;;;;9.77;4.23;;;6.30;99.90;;;;;;4858694;29;20236;-94
2023/01/10 00:28:22;;;;;;;17.57;4.77;;;6.20;99.90;;;;;;4839442;29;20233;-96
2023/01/10 00:30:53;;;;;;;11.87;4.57;;;6.20;99.90;;;;;;4839310;29;20241;-93
2023/01/10 00:33:20;;;;;;;11.90;4.63;;;6.20;99.90;;;;;;4856887;29;20174;-93
2023/01/10 00:35:47;;;;;;;10.87;4.60;;;6.20;99.90;;;;;;4831819;29;20221;-91
2023/01/10 00:38:15;;;;;;;19.23;4.90;;;6.30;99.90;;;;;;4846138;29;20525;-91
2023/01/10 00:40:41;;;;;;;10.23;4.40;;;6.30;99.90;;;;;;4830281;29;20193;-92
2023/01/10 00:45:54;;;;;;;11.23;4.73;;;6.30;99.90;;;;;;4864791;29;20172;-95
2023/01/10 00:48:29;;;;;;;14.93;5.27;;;6.30;99.90;;;;;;4847390;29;20189;-91
2023/01/10 00:50:55;;;;;;;12.63;4.40;;;6.30;99.90;;;;;;4848388;29;20195;-91
2023/01/10 00:53:21;;;;;;;14.53;4.97;;;6.30;99.90;;;;;;4848409;29;20184;-92
2023/01/10 00:55:47;;;;;;;14.83;4.77;;;6.30;99.90;;;;;;4846176;29;20208;-91
2023/01/10 00:58:16;;;;;;;12.20;4.60;;;6.30;99.90;;;;;;4846873;29;20181;-90
2023/01/10 01:00:48;;;;;;;12.23;4.87;;;6.30;99.90;;;;;;4846448;29;20212;-91
2023/01/10 01:03:14;;;;;;;10.67;4.80;;;6.30;99.90;;;;;;4846685;29;20191;-90
2023/01/10 01:05:41;;;;;;;12.60;4.90;;;6.30;99.90;;;;;;4831153;29;20196;-92
2023/01/10 01:08:08;;;;;;;15.57;5.00;;;6.30;99.90;;;;;;4845792;29;20534;-92
2023/01/10 01:10:34;;;;;;;18.37;4.70;;;6.30;99.90;;;;;;4846078;29;20219;-92
2023/01/10 01:13:14;;;;;;;12.37;5.67;;;6.30;99.90;;;;;;4846153;29;20185;-90
2023/01/10 01:15:39;;;;;;;13.87;5.00;;;6.30;99.90;;;;;;4848280;29;20223;-90
2023/01/10 01:18:05;;;;;;;12.13;5.20;;;6.30;99.90;;;;;;4849493;29;20558;-90
2023/01/10 01:20:33;;;;;;;12.17;5.10;;;6.30;99.90;;;;;;4849993;29;20193;-91
2023/01/10 01:22:59;;;;;;;16.33;5.87;;;6.30;99.90;;;;;;4866523;29;20181;-92
2023/01/10 01:25:26;;;;;;;13.37;4.97;;;6.30;99.90;;;;;;4849343;29;20192;-92
2023/01/10 01:27:51;;;;;;;9.83;4.50;;;6.30;99.90;;;;;;4849714;29;20323;-91
2023/01/10 01:30:23;;;;;;;10.67;5.00;;;6.30;99.90;;;;;;4850523;29;20205;-90
2023/01/10 01:32:49;;;;;;;11.60;5.00;;;6.30;99.90;;;;;;4866132;29;20213;-91
2023/01/10 01:35:15;;;;;;;11.57;5.37;;;6.30;99.90;;;;;;4865763;29;20280;-91
2023/01/10 01:37:42;;;;;;;17.07;5.63;;;6.30;99.90;;;;;;4866052;29;20185;-90
2023/01/10 01:40:19;;;;;;;12.07;5.47;;;6.30;99.90;;;;;;4865222;29;20226;-94
2023/01/10 01:42:46;;;;;;;17.77;6.27;;;6.30;99.90;;;;;;4849401;29;20192;-93
2023/01/10 01:45:33;;;;;;;11.07;5.67;;;6.30;99.90;;;;;;4849379;29;20192;-90
2023/01/10 01:48:27;;;;;;;8.23;5.20;;;6.30;99.90;;;;;;4849101;29;20266;-95
2023/01/10 01:50:56;;;;;;;13.20;5.70;;;6.30;99.90;;;;;;4849985;29;20189;-90
2023/01/10 01:53:30;;;;;;;17.23;5.80;;;6.30;99.90;;;;;;4849712;29;20263;-91
2023/01/10 01:56:00;;;;;;;12.57;5.90;;;6.30;99.90;;;;;;4849359;29;20220;-91
2023/01/10 01:58:49;;;;;;;12.50;5.73;;;6.30;99.90;;;;;;4849566;29;20180;-91
2023/01/10 02:01:15;;;;;;;11.83;5.60;;;6.30;99.90;;;;;;4849207;29;20213;-92
2023/01/10 02:03:43;;;;;;;19.97;6.27;;;6.30;99.90;;;;;;4849208;29;20177;-91
2023/01/10 02:06:09;;;;;;;13.90;6.70;;;6.20;99.90;;;;;;4849486;29;20199;-94
2023/01/10 02:08:37;;;;;;;12.03;6.00;;;6.20;99.90;;;;;;4850257;29;20620;-90
2023/01/10 02:11:08;;;;;;;14.20;6.77;;;6.20;99.90;;;;;;4850368;29;20631;-90
2023/01/10 02:13:38;;;;;;;12.10;5.80;;;6.20;99.90;;;;;;4849943;29;20196;-91
2023/01/10 02:16:04;;;;;;;12.50;6.53;;;6.20;99.90;;;;;;4865513;29;20223;-92
2023/01/10 02:18:30;;;;;;;13.50;6.57;;;6.20;99.90;;;;;;4849586;29;20185;-91
2023/01/10 02:20:56;;;;;;;16.93;6.80;;;6.20;99.90;;;;;;4849992;29;20246;-91
2023/01/10 02:23:56;;;;;;;10.70;6.30;;;6.20;99.90;;;;;;4849136;29;20205;-90
2023/01/10 02:27:09;;;;;;;14.90;7.07;;;6.30;99.90;;;;;;4828826;29;20279;-90
2023/01/10 02:29:41;;;;;;;20.03;7.23;;;6.30;99.90;;;;;;4775617;30;20203;-91
2023/01/10 02:32:22;;;;;;;12.13;6.53;;;6.20;99.90;;;;;;4776614;30;20194;-90
2023/01/10 02:34:58;;;;;;;12.07;6.80;;;6.30;99.90;;;;;;5221179;23;20256;-90
2023/01/10 02:37:31;;;;;;;18.57;7.10;;;6.30;99.90;;;;;;4844033;29;20192;-89
2023/01/10 02:40:06;;;;;;;14.77;7.77;;;6.20;99.90;;;;;;4828804;29;20196;-90
2023/01/10 02:43:05;;;;;;;21.17;7.97;;;6.20;99.90;;;;;;4828949;29;20248;-89
2023/01/10 02:45:43;;;;;;;15.27;8.10;;;6.20;99.90;;;;;;4828876;29;20246;-91
2023/01/10 02:48:08;;;;;;;20.43;8.40;;;6.20;99.90;;;;;;4828747;29;20210;-90
2023/01/10 02:50:40;;;;;;;17.13;7.50;;;6.30;99.90;;;;;;4828493;29;20605;-89
2023/01/10 02:53:15;;;;;;;13.83;7.70;;;6.20;99.90;;;;;;4845037;29;20264;-90
2023/01/10 02:56:05;;;;;;;14.80;8.07;;;6.20;99.90;;;;;;4828646;29;20273;-90
2023/01/10 02:58:34;;;;;;;14.17;7.57;;;6.20;99.90;;;;;;4843944;29;20181;-90
2023/01/10 03:01:03;;;;;;;13.23;8.07;;;6.30;99.90;;;;;;4843737;29;20217;-89
2023/01/10 03:03:44;;;;;;;17.87;8.63;;;6.20;99.90;;;;;;4844617;29;20181;-89
2023/01/10 03:06:19;;;;;;;17.83;8.23;;;6.20;99.90;;;;;;4845825;29;20219;-89
2023/01/10 03:08:55;;;;;;;16.90;7.97;;;6.20;99.90;;;;;;4846370;29;20187;-89
2023/01/10 03:11:38;;;;;;;12.33;7.80;;;6.20;99.90;;;;;;4846791;29;20274;-91
2023/01/10 03:14:09;;;;;;;14.97;8.37;;;6.20;99.90;;;;;;4846492;29;20176;-89
2023/01/10 03:16:36;;;;;;;15.23;8.10;;;6.10;99.90;;;;;;4846504;29;20255;-90
2023/01/10 03:19:05;;;;;;;16.57;8.30;;;6.20;99.90;;;;;;4861466;29;20199;-90
2023/01/10 03:21:33;;;;;;;20.17;9.13;;;6.20;99.90;;;;;;4846357;29;20712;-92
2023/01/10 03:24:04;;;;;;;13.13;8.20;;;6.20;99.90;;;;;;4862634;29;20229;-89
2023/01/10 03:26:58;;;;;;;15.93;8.63;;;6.20;99.90;;;;;;4863015;29;20181;-89
2023/01/10 03:29:45;;;;;;;18.13;8.60;;;6.20;99.90;;;;;;4820516;29;20197;-89
2023/01/10 03:32:14;;;;;;;15.20;8.57;;;6.20;99.90;;;;;;4846099;29;20177;-88
2023/01/10 03:34:40;;;;;;;16.40;8.50;;;6.10;99.90;;;;;;4850650;29;20272;-89
2023/01/10 03:37:27;;;;;;;14.50;8.97;;;6.10;99.90;;;;;;4861156;29;20215;-90
2023/01/10 03:40:13;;;;;;;17.43;8.57;;;6.10;99.90;;;;;;4862786;29;20246;-88
2023/01/10 03:46:03;;;;;;;14.60;7.63;;;6.20;99.90;;;;;;4862661;29;20196;-89
2023/01/10 03:48:35;;;;;;;15.13;8.57;;;6.30;99.90;;;;;;4861362;29;20181;-89
2023/01/10 03:51:03;;;;;;;12.87;8.17;;;6.20;99.90;;;;;;4861060;29;20185;-89
2023/01/10 03:53:30;;;;;;;14.83;8.63;;;6.20;99.90;;;;;;4861337;29;20188;-90
2023/01/10 03:55:56;;;;;;;13.70;8.17;;;6.20;99.90;;;;;;4861147;29;20249;-90
2023/01/10 03:58:22;;;;;;;15.43;7.77;;;6.10;99.90;;;;;;4861491;29;20185;-89
2023/01/10 04:00:48;;;;;;;11.23;7.23;;;6.20;99.90;;;;;;4861268;29;20275;-90
2023/01/10 04:03:15;;;;;;;14.87;7.03;;;6.20;99.90;;;;;;4861043;29;20219;-89
2023/01/10 04:05:41;;;;;;;10.27;6.73;;;6.20;99.90;;;;;;4860933;29;20198;-90
2023/01/10 04:08:08;;;;;;;10.03;6.13;;;6.10;99.90;;;;;;4861065;29;20185;-89
2023/01/10 04:10:33;;;;;;;10.57;6.50;;;6.20;99.90;;;;;;4861346;29;20192;-89
2023/01/10 04:13:03;;;;;;;13.27;5.90;;;6.10;99.90;;;;;;4861141;29;20271;-91
2023/01/10 04:15:29;;;;;;;14.97;5.50;;;6.20;99.90;;;;;;4861220;29;20225;-89
2023/01/10 04:17:55;;;;;;;10.10;5.50;;;6.20;99.90;;;;;;4861301;29;20279;-90
2023/01/10 04:20:24;;;;;;;10.13;5.70;;;6.10;99.90;;;;;;4860725;29;20290;-90
2023/01/10 04:22:50;;;;;;;9.70;6.30;;;6.20;99.90;;;;;;4860983;29;20192;-89
2023/01/10 04:25:16;;;;;;;8.60;5.57;;;6.20;99.90;;;;;;4861482;29;20199;-90
2023/01/10 04:27:41;;;;;;;13.40;6.10;;;6.10;99.90;;;;;;4862697;29;20724;-89
2023/01/10 04:30:08;;;;;;;12.53;6.30;;;6.20;99.90;;;;;;4861455;29;20180;-90
2023/01/10 04:32:34;;;;;;;10.67;5.70;;;6.20;99.90;;;;;;4861398;29;20196;-90
2023/01/10 04:35:00;;;;;;;12.10;6.37;;;6.10;99.90;;;;;;4861008;29;20255;-91
2023/01/10 04:37:25;;;;;;;16.00;6.37;;;6.10;99.90;;;;;;4861526;29;20275;-91
2023/01/10 04:39:51;;;;;;;13.57;5.63;;;6.20;99.90;;;;;;4861479;29;20188;-91
2023/01/10 04:42:17;;;;;;;14.30;6.20;;;6.10;99.90;;;;;;4861100;29;20192;-91
2023/01/10 04:44:43;;;;;;;14.83;6.27;;;6.10;99.90;;;;;;4861099;29;20580;-90
2023/01/10 04:47:08;;;;;;;10.13;5.93;;;6.10;99.90;;;;;;4860869;29;20189;-91
2023/01/10 04:49:34;;;;;;;18.43;7.03;;;6.20;99.90;;;;;;4861619;29;20185;-93
2023/01/10 04:52:00;;;;;;;14.70;6.90;;;6.20;99.90;;;;;;4864905;29;20231;-90
2023/01/10 04:54:26;;;;;;;18.53;6.23;;;6.20;99.90;;;;;;4864451;29;20184;-91
2023/01/10 04:56:52;;;;;;;13.63;6.13;;;6.20;99.90;;;;;;4864880;29;20232;-91
2023/01/10 04:59:18;;;;;;;15.63;6.30;;;6.10;99.90;;;;;;4864427;29;20181;-90
2023/01/10 05:01:44;;;;;;;16.10;6.30;;;6.10;99.90;;;;;;4864236;29;20295;-91
2023/01/10 05:04:10;;;;;;;13.67;6.40;;;6.10;99.90;;;;;;4864175;29;20747;-90
2023/01/10 05:06:38;;;;;;;13.90;5.70;;;6.10;99.90;;;;;;4864828;29;20624;-92
2023/01/10 05:09:05;;;;;;;14.20;6.23;;;6.10;99.90;;;;;;4864396;29;20180;-89
2023/01/10 05:11:31;;;;;;;10.93;5.53;;;6.10;99.90;;;;;;4864758;29;20612;-91
2023/01/10 05:13:56;;;;;;;11.67;5.97;;;6.10;99.90;;;;;;4864281;29;20181;-90
2023/01/10 05:16:24;;;;;;;18.70;6.03;;;6.10;99.90;;;;;;4863941;29;20680;-90
2023/01/10 05:18:50;;;;;;;12.83;5.60;;;6.10;99.90;;;;;;4864087;29;20177;-91
2023/01/10 05:21:16;;;;;;;16.10;5.57;;;6.10;99.90;;;;;;4863788;29;20528;-91
2023/01/10 05:23:42;;;;;;;15.33;6.03;;;6.10;99.90;;;;;;4864260;29;20235;-91
2023/01/10 05:26:12;;;;;;;16.07;5.93;;;6.10;99.90;;;;;;4863987;29;20623;-90
2023/01/10 05:28:39;;;;;;;11.13;5.43;;;6.10;99.90;;;;;;4864005;29;20181;-91
2023/01/10 05:31:06;;;;;;;16.40;5.07;;;6.10;99.90;;;;;;4863948;29;20193;-90
2023/01/10 05:33:32;;;;;;;13.53;5.10;;;6.10;99.90;;;;;;4863859;29;20203;-89
2023/01/10 05:36:03;;;;;;;14.63;5.00;;;6.10;99.90;;;;;;4863350;29;20581;-90
2023/01/10 05:38:29;;;;;;;14.03;4.83;;;6.10;99.90;;;;;;4863596;29;20245;-89
2023/01/10 05:40:56;;;;;;;17.50;4.87;;;6.10;99.90;;;;;;4863686;29;20224;-89
2023/01/10 05:43:23;;;;;;;11.77;4.10;;;6.10;99.90;;;;;;4863585;29;20271;-90
2023/01/10 05:45:48;;;;;;;10.60;4.00;;;6.10;99.90;;;;;;4863568;29;20507;-89
2023/01/10 05:48:14;;;;;;;14.07;4.07;;;6.10;99.90;;;;;;4863366;29;20233;-90
2023/01/10 05:50:40;;;;;;;12.17;4.00;;;6.10;99.90;;;;;;4864404;29;20236;-91
2023/01/10 05:53:06;;;;;;;11.53;3.30;;;6.00;99.90;;;;;;4863487;29;20188;-91
2023/01/10 05:55:32;;;;;;;11.57;3.43;;;6.10;99.90;;;;;;4863429;29;20231;-91
2023/01/10 05:57:58;;;;;;;12.93;4.03;;;6.10;99.90;;;;;;4863323;29;20208;-90
2023/01/10 06:00:25;;;;;;;11.90;3.37;;;6.00;99.90;;;;;;4863031;29;20193;-90
2023/01/10 06:02:53;;;;;;;11.13;3.33;;;6.10;99.90;;;;;;4863203;29;20270;-90
2023/01/10 06:05:18;;;;;;;16.27;2.93;;;6.00;99.90;;;;;;4863125;29;20305;-90
2023/01/10 06:07:44;;;;;;;8.43;2.90;;;6.00;99.90;;;;;;4863267;29;20570;-90
2023/01/10 06:10:10;;;;;;;11.40;3.20;;;6.00;99.90;;;;;;4863194;29;20233;-90
2023/01/10 06:12:39;;;;;;;15.00;3.27;;;6.00;99.90;;;;;;4863179;29;20188;-89
2023/01/10 06:15:06;;;;;;;14.07;3.03;;;6.00;99.90;;;;;;4862170;29;20273;-89
2023/01/10 06:17:33;;;;;;;10.97;2.90;;;6.00;99.90;;;;;;4863060;29;20227;-91
2023/01/10 06:19:58;;;;;;;9.37;2.60;;;6.00;99.90;;;;;;4863124;29;20215;-90
2023/01/10 06:22:25;;;;;;;14.70;3.20;;;6.00;99.90;;;;;;4863678;29;20608;-90
2023/01/10 06:24:51;;;;;;;9.80;2.80;;;6.00;99.90;;;;;;4863164;29;20195;-90
2023/01/10 06:27:17;;;;;;;9.97;2.80;;;6.00;99.90;;;;;;4862622;29;20185;-90
2023/01/10 06:29:42;;;;;;;9.03;2.27;;;6.00;99.90;;;;;;4862595;29;20197;-90
2023/01/10 06:32:08;;;;;;;10.17;2.80;;;5.90;99.90;;;;;;4862681;29;20268;-89
2023/01/10 06:34:34;;;;;;;12.90;2.83;;;5.90;99.90;;;;;;4850397;29;20680;-89
2023/01/10 06:37:00;;;;;;;9.90;2.40;;;5.90;99.90;;;;;;4828778;29;20196;-90
2023/01/10 06:39:25;;;;;;;12.40;3.10;;;5.80;99.90;;;;;;4828367;29;20193;-90
2023/01/10 06:41:51;;;;;;;10.77;2.40;;;5.70;99.90;;;;;;4845020;29;20189;-90
2023/01/10 06:44:17;;;;;;;17.67;3.37;;;5.70;99.90;;;;;;4828553;29;20197;-89
2023/01/10 06:46:42;;;;;;;19.20;3.40;;;5.70;99.90;;;;;;4828685;29;20197;-89
2023/01/10 06:49:08;;;;;;;13.63;3.00;;;5.60;99.90;;;;;;4828600;29;20664;-89
2023/01/10 06:51:34;;;;;;;11.97;2.77;;;5.60;99.90;;;;;;4828290;29;20193;-89
2023/01/10 06:53:59;;;;;;;11.43;2.63;;;5.60;99.90;;;;;;4828383;29;20192;-88
2023/01/10 06:56:25;;;;;;;15.20;3.00;;;5.50;99.90;;;;;;4844395;29;20220;-89
2023/01/10 06:58:50;;;;;;;11.43;2.97;;;5.50;99.90;;;;;;4828038;29;20220;-89
2023/01/10 07:01:18;;;;;;;11.93;2.93;;;5.40;99.90;;;;;;4828399;29;20196;-88
2023/01/10 07:03:44;;;;;;;11.83;3.30;;;5.40;99.90;;;;;;4828134;29;20226;-90
2023/01/10 07:06:11;;;;;;;13.83;3.00;;;5.40;99.90;;;;;;4828166;29;20193;-90
2023/01/10 07:08:39;;;;;;;15.13;3.03;;;5.40;99.90;;;;;;4828270;29;20677;-89
2023/01/10 07:11:05;;;;;;;9.87;3.13;;;5.40;99.90;;;;;;4828224;29;20185;-89
2023/01/10 07:13:31;;;;;;;16.53;3.13;;;5.50;99.90;;;;;;4827202;29;20193;-88
2023/01/10 07:16:11;;;;;;;18.63;3.83;;;5.50;99.90;;;;;;4828184;29;20225;-90
2023/01/10 07:18:39;;;;;;;9.07;3.17;;;5.50;99.90;;;;;;4828112;29;20506;-89
2023/01/10 07:21:05;;;;;;;10.17;3.47;;;5.60;99.90;;;;;;4828113;29;20212;-89
2023/01/10 07:23:31;;;;;;;15.60;3.67;;;5.60;99.90;;;;;;4827741;29;20193;-89
2023/01/10 07:25:58;;;;;;;13.33;3.10;;;5.60;99.90;;;;;;4828374;29;20204;-89
2023/01/10 07:28:23;;;;;;;15.00;3.27;;;5.60;99.90;;;;;;4827867;29;20188;-88
2023/01/10 07:30:49;;;;;;;15.97;3.77;;;5.60;99.90;;;;;;4828253;29;20185;-90
2023/01/10 07:33:15;;;;;;;12.70;3.33;;;5.70;99.90;;;;;;4827330;29;20269;-89
2023/01/10 07:35:40;;;;;;;8.37;3.20;;;5.80;99.90;;;;;;4827893;29;20642;-88
2023/01/10 07:38:07;;;;;;;10.20;3.60;;;5.70;99.90;;;;;;4843881;29;20177;-89
2023/01/10 07:40:34;;;;;;;13.70;3.67;;;5.80;99.90;;;;;;4843852;29;20221;-88
2023/01/10 07:43:01;;;;;;;17.10;4.13;;;5.80;99.90;;;;;;4827545;29;20209;-88
2023/01/10 07:45:29;;;;;;;8.83;3.20;;;5.80;99.90;;;;;;4827313;29;20200;-88
2023/01/10 07:48:03;;;;;;;11.83;3.27;;;5.80;99.90;;;;;;4827530;29;20196;-88
2023/01/10 07:50:30;;;;;;;10.67;3.70;;;5.80;99.90;;;;;;4827473;29;20189;-88
2023/01/10 07:52:58;;;;;;;13.13;3.50;;;5.80;99.90;;;;;;4827127;29;20189;-88
2023/01/10 07:55:24;;;;;;;15.60;3.43;;;5.80;99.90;;;;;;4827247;29;20229;-88
2023/01/10 07:57:50;;;;;;;14.57;3.70;;;5.80;99.90;;;;;;4827689;29;20196;-88
2023/01/10 08:00:17;;;;;;;11.03;3.30;;;5.80;99.90;;;;;;4827083;29;20189;-87
2023/01/10 08:02:43;;;;;;;14.97;3.70;;;5.80;99.90;;;;;;4827372;29;20260;-88
2023/01/10 08:05:09;;;;;;;15.63;4.03;;;5.80;99.90;;;;;;4827106;29;20193;-88
2023/01/10 08:07:35;;;;;;;15.73;4.30;;;5.70;99.90;;;;;;4827129;29;20189;-88
2023/01/10 08:10:02;;;;;;;20.60;4.87;;;5.70;99.90;;;;;;4827531;29;20654;-88
2023/01/10 08:12:27;;;;;;;11.17;3.57;;;5.70;99.90;;;;;;4843515;29;20177;-88
2023/01/10 08:14:53;;;;;;;14.43;4.43;;;5.70;99.90;;;;;;4827343;29;20660;-88
2023/01/10 08:17:19;;;;;;;11.87;3.90;;;5.70;99.90;;;;;;4827663;29;20493;-89
2023/01/10 08:19:44;;;;;;;17.47;4.23;;;5.70;99.90;;;;;;4827465;29;20605;-88
2023/01/10 08:22:11;;;;;;;17.23;4.60;;;5.70;99.90;;;;;;4827474;29;20201;-89
2023/01/10 08:24:37;;;;;;;11.70;4.13;;;5.70;99.90;;;;;;4829669;29;20178;-89
2023/01/10 08:27:03;;;;;;;18.97;5.00;;;5.70;99.90;;;;;;4831121;29;20189;-88
2023/01/10 08:29:29;;;;;;;24.83;4.53;;;5.60;99.90;;;;;;4830761;29;20185;-88
2023/01/10 08:31:55;;;;;;;19.53;4.73;;;5.70;99.90;;;;;;4847635;29;20173;-88
2023/01/10 08:34:21;;;;;;;21.20;4.97;;;5.70;99.90;;;;;;4838819;29;20247;-89
2023/01/10 08:36:51;;;;;;;15.93;4.63;;;5.70;99.90;;;;;;4864314;29;20214;-87
2023/01/10 08:39:20;;;;;;;22.40;5.20;;;5.70;99.90;;;;;;4864257;29;20183;-88
2023/01/10 08:41:46;;;;;;;16.23;4.87;;;5.80;99.90;;;;;;4864412;29;20196;-88
2023/01/10 08:44:14;;;;;;;20.47;4.70;;;5.70;99.90;;;;;;4864525;29;20219;-89
2023/01/10 08:46:40;;;;;;;20.03;4.70;;;5.80;99.90;;;;;;4864299;29;20260;-89
2023/01/10 08:49:06;;;;;;;16.20;4.70;;;5.80;99.90;;;;;;4865180;29;20195;-88
2023/01/10 08:51:32;;;;;;;15.60;4.57;;;5.80;99.90;;;;;;4864106;29;20180;-90
2023/01/10 08:53:58;;;;;;;17.07;5.10;;;5.80;99.90;;;;;;4863992;29;20615;-89
2023/01/10 08:56:23;;;;;;;23.47;6.30;;;5.90;99.90;;;;;;4863919;29;20833;-87
2023/01/10 08:58:49;;;;;;;17.73;5.07;;;5.90;99.90;;;;;;4864664;29;20187;-89
2023/01/10 09:01:15;;;;;;;18.83;6.07;;;5.90;99.90;;;;;;4863824;29;20503;-88
2023/01/10 09:03:41;;;;;;;16.33;5.87;;;6.00;99.90;;;;;;4863436;29;20192;-87
2023/01/10 09:06:07;;;;;;;15.47;5.63;;;6.00;99.90;;;;;;4863738;29;20193;-89
2023/01/10 09:08:34;;;;;;;19.50;6.47;;;6.00;99.90;;;;;;4863694;29;20660;-89
2023/01/10 09:11:01;;;;;;;18.03;7.03;;;6.00;99.90;;;;;;4863688;29;20248;-87
2023/01/10 09:13:28;;;;;;;20.77;7.07;;;6.00;99.90;;;;;;4862682;29;20188;-86
2023/01/10 09:15:55;;;;;;;16.80;7.23;;;6.00;99.90;;;;;;4864659;29;20220;-89
2023/01/10 09:18:21;;;;;;;19.97;8.17;;;6.10;99.90;;;;;;4863083;29;20193;-89
2023/01/10 09:20:48;;;;;;;16.73;7.90;;;6.10;99.90;;;;;;4863440;29;20584;-89
2023/01/10 09:23:17;;;;;;;24.73;7.90;;;6.10;99.90;;;;;;4863570;29;20185;-85
2023/01/10 09:25:44;;;;;;;15.97;7.83;;;6.10;99.90;;;;;;4863302;29;20586;-87
2023/01/10 09:28:10;;;;;;;21.43;8.20;;;6.10;99.90;;;;;;4864572;29;20180;-85
2023/01/10 09:30:36;;;;;;;14.67;7.47;;;6.10;99.90;;;;;;4864013;29;20200;-87
2023/01/10 09:33:02;;;;;;;16.90;8.23;;;6.30;99.90;;;;;;4864249;29;20240;-89
2023/01/10 09:35:29;;;;;;;18.37;6.20;;;6.30;99.90;;;;;;4863196;29;20232;-85
2023/01/10 09:37:57;;;;;;;17.47;7.40;;;6.30;99.90;;;;;;4864058;29;20637;-86
2023/01/10 09:40:48;;;;;;;21.37;7.13;;;6.40;99.90;;;;;;4847538;29;20213;-85
2023/01/10 09:43:46;;;;;;;11.90;6.07;;;6.50;99.90;;;;;;4863945;29;20184;-85
2023/01/10 09:46:43;;;;;;;14.33;6.27;;;6.50;99.90;;;;;;4847345;29;20172;-87
2023/01/10 09:49:41;;;;;;;19.80;6.10;;;6.50;99.90;;;;;;4847354;29;20603;-86
2023/01/10 09:52:19;;;;;;;14.83;5.67;;;6.60;99.90;;;;;;4847434;29;20621;-87
2023/01/10 09:54:47;;;;;;;20.77;5.90;;;6.60;99.90;;;;;;4847340;29;20222;-84
2023/01/10 09:57:16;;;;;;;17.40;6.30;;;6.60;99.90;;;;;;4863783;29;20188;-87
2023/01/10 09:59:44;;;;;;;14.70;6.33;;;6.60;99.90;;;;;;4847156;29;20176;-87
2023/01/10 10:02:25;;;;;;;13.30;5.40;;;6.60;99.90;;;;;;4847099;29;20219;-87
2023/01/10 10:05:06;;;;;;;20.40;5.90;;;6.60;99.90;;;;;;4846979;29;20192;-88
2023/01/10 10:07:32;;;;;;;14.33;5.50;;;6.60;99.90;;;;;;4862618;29;20173;-85
2023/01/10 10:09:57;;;;;;;19.53;6.07;;;6.60;99.90;;;;;;4846958;29;20652;-86
2023/01/10 10:13:07;;;;;;;14.47;5.73;;;6.60;99.90;;;;;;4846984;29;20180;-87
2023/01/10 10:16:31;;;;;;;20.03;6.10;;;6.60;99.90;;;;;;4816304;29;20221;-84
2023/01/10 10:19:21;;;;;;;15.57;5.33;;;6.60;99.90;;;;;;4791234;29;20202;-85
2023/01/10 10:22:15;;;;;;;23.73;6.23;;;6.60;99.90;;;;;;4791521;29;20560;-88
2023/01/10 10:25:00;;;;;;;12.23;5.23;;;6.60;99.90;;;;;;4852836;29;20636;-85
2023/01/10 10:27:47;;;;;;;17.13;6.10;;;6.60;99.90;;;;;;4846738;29;20209;-87
2023/01/10 10:30:52;;;;;;;19.17;5.47;;;6.60;99.90;;;;;;4862936;29;20180;-86
2023/01/10 10:33:58;;;;;;;12.77;5.33;;;6.70;99.90;;;;;;4830702;29;20193;-85
2023/01/10 10:36:34;;;;;;;14.93;5.00;;;6.70;99.90;;;;;;4825244;29;20228;-85
2023/01/10 10:39:01;;;;;;;13.10;5.40;;;6.80;99.90;;;;;;4846516;29;20276;-87
2023/01/10 10:41:38;;;;;;;20.13;5.93;;;6.80;99.90;;;;;;4846387;29;20176;-87
2023/01/10 10:44:30;;;;;;;12.43;5.00;;;6.80;99.90;;;;;;4862720;29;20192;-87
2023/01/10 10:46:59;;;;;;;14.33;4.97;;;6.70;99.90;;;;;;4852281;29;20225;-88
2023/01/10 10:49:54;;;;;;;14.10;4.77;;;6.80;99.90;;;;;;4846244;29;20241;-85
2023/01/10 10:52:31;;;;;;;13.03;4.37;;;6.80;99.90;;;;;;4844990;29;20307;-87
2023/01/10 10:54:57;;;;;;;14.03;4.80;;;6.80;99.90;;;;;;4846194;29;20205;-89
2023/01/10 10:57:26;;;;;;;15.00;5.37;;;6.80;99.90;;;;;;4862734;29;20620;-86
2023/01/10 10:59:53;;;;;;;18.77;5.10;;;6.90;99.90;;;;;;4846005;29;20236;-89
2023/01/10 11:02:23;;;;;;;12.63;4.60;;;6.80;99.90;;;;;;4846059;29;20181;-86
2023/01/10 11:04:52;;;;;;;17.23;5.40;;;6.90;99.90;;;;;;4846027;29;20184;-87
2023/01/10 11:07:19;;;;;;;14.03;4.80;;;6.90;99.90;;;;;;4845959;29;20192;-85
2023/01/10 11:12:18;;;;;;;12.83;5.40;;;6.90;99.90;;;;;;4862856;29;20176;-88
2023/01/10 11:14:46;;;;;;;16.20;5.00;;;6.90;99.90;;;;;;4845616;29;20222;-86
2023/01/10 11:17:26;;;;;;;13.60;5.20;;;6.90;99.90;;;;;;4845844;29;20223;-87
2023/01/10 11:19:59;;;;;;;15.20;4.70;;;7.00;99.90;;;;;;4845742;29;20187;-86
2023/01/10 11:22:27;;;;;;;10.73;5.00;;;6.90;99.90;;;;;;4845649;29;20177;-84
2023/01/10 11:24:57;;;;;;;24.07;6.10;;;6.90;99.90;;;;;;4845754;29;20185;-87
2023/01/10 11:27:26;;;;;;;20.80;5.10;;;6.90;99.90;;;;;;4845615;29;20180;-83
2023/01/10 11:30:00;;;;;;;15.07;4.70;;;6.90;99.90;;;;;;4862024;29;20192;-86
2023/01/10 11:32:47;;;;;;;19.60;4.87;;;7.00;99.90;;;;;;4845688;29;20177;-89
2023/01/10 11:35:34;;;;;;;10.20;4.30;;;7.10;99.90;;;;;;4833298;29;20239;-87
2023/01/10 11:38:03;;;;;;;13.40;4.97;;;7.10;99.90;;;;;;4827485;29;20192;-86
2023/01/10 11:40:31;;;;;;;15.43;5.20;;;7.10;99.90;;;;;;4843648;29;20204;-88
2023/01/10 11:42:59;;;;;;;11.37;4.53;;;7.10;99.90;;;;;;4827211;29;20192;-85
2023/01/10 11:45:26;;;;;;;14.90;5.10;;;7.10;99.90;;;;;;4827008;29;20632;-87
2023/01/10 11:48:06;;;;;;;12.57;4.77;;;7.10;99.90;;;;;;4843361;29;20641;-86
2023/01/10 11:50:36;;;;;;;10.10;4.60;;;7.10;99.90;;;;;;4843484;29;20169;-87
2023/01/10 11:53:04;;;;;;;16.10;5.37;;;7.10;99.90;;;;;;4827072;29;20325;-88
2023/01/10 11:55:33;;;;;;;20.20;5.80;;;7.20;99.90;;;;;;4827040;29;20221;-86
2023/01/10 11:58:01;;;;;;;21.37;5.43;;;7.20;99.90;;;;;;4843095;29;20177;-87
2023/01/10 12:00:34;;;;;;;14.87;5.33;;;7.20;99.90;;;;;;4826836;29;20628;-87
2023/01/10 12:03:00;;;;;;;16.77;4.97;;;7.20;99.90;;;;;;4827263;29;20605;-86
2023/01/10 12:05:26;;;;;;;20.33;5.60;;;7.20;99.90;;;;;;4827131;29;20229;-87
2023/01/10 12:08:17;;;;;;;17.53;5.73;;;7.20;99.90;;;;;;4843033;29;20272;-84
2023/01/10 12:10:57;;;;;;;11.50;5.00;;;7.20;99.90;;;;;;4842502;29;20193;-86
2023/01/10 12:13:22;;;;;;;11.60;5.53;;;7.30;99.90;;;;;;4826212;29;20189;-86
2023/01/10 12:15:48;;;;;;;15.13;5.27;;;7.20;99.90;;;;;;4826730;29;20228;-86
2023/01/10 12:18:16;;;;;;;16.90;5.60;;;7.20;99.90;;;;;;4826826;29;20185;-87
2023/01/10 12:20:51;;;;;;;22.53;5.70;;;7.20;99.90;;;;;;4843179;29;20186;-87
2023/01/10 12:23:20;;;;;;;13.47;4.90;;;7.20;99.90;;;;;;4826953;29;20241;-88
2023/01/10 12:25:47;;;;;;;15.57;4.73;;;7.30;99.90;;;;;;4843241;29;20590;-89
2023/01/10 12:28:20;;;;;;;14.97;5.23;;;7.30;99.90;;;;;;4826726;29;20253;-88
2023/01/10 12:30:51;;;;;;;16.60;4.87;;;7.30;99.90;;;;;;4843037;29;20637;-88
2023/01/10 12:33:37;;;;;;;13.57;5.10;;;7.30;99.90;;;;;;4826916;29;20185;-88
2023/01/10 12:36:43;;;;;;;11.67;4.70;;;7.30;99.90;;;;;;4826594;29;20617;-86
2023/01/10 12:39:33;;;;;;;15.70;4.80;;;7.30;99.90;;;;;;4843151;29;20633;-85
2023/01/10 12:45:29;;;;;;;22.40;5.43;;;7.40;99.90;;;;;;4842952;29;20326;-85
2023/01/10 12:47:58;;;;;;;17.47;5.47;;;7.40;99.90;;;;;;4826728;29;20181;-87
2023/01/10 12:50:33;;;;;;;14.40;5.30;;;7.40;99.90;;;;;;4826563;29;20201;-86
2023/01/10 12:53:08;;;;;;;12.47;5.07;;;7.40;99.90;;;;;;4842883;29;20165;-88
2023/01/10 12:55:45;;;;;;;13.90;5.50;;;7.40;99.90;;;;;;4826647;29;20660;-87
2023/01/10 12:58:34;;;;;;;17.10;5.40;;;7.40;99.90;;;;;;4826465;29;20192;-88
2023/01/10 13:01:02;;;;;;;16.17;5.07;;;7.40;99.90;;;;;;4826510;29;20261;-88
2023/01/10 13:03:30;;;;;;;14.07;4.80;;;7.30;99.90;;;;;;4826558;29;20181;-87
2023/01/10 13:05:57;;;;;;;15.03;4.97;;;7.30;99.90;;;;;;4826678;29;20685;-89
2023/01/10 13:08:26;;;;;;;15.43;4.33;;;7.30;99.90;;;;;;4826262;29;20197;-86
2023/01/10 13:10:54;;;;;;;16.47;4.33;;;7.30;99.90;;;;;;4827551;29;20268;-87
2023/01/10 13:13:37;;;;;;;15.33;4.40;;;7.30;99.90;;;;;;4846106;29;20186;-86
2023/01/10 13:16:30;;;;;;;14.00;4.83;;;7.30;99.90;;;;;;4829383;29;20598;-87
2023/01/10 13:19:05;;;;;;;10.67;3.87;;;7.30;99.90;;;;;;4829359;29;20180;-86